createdAt,value
2023-02-22T00:00:49.831Z,28.35
2023-02-22T00:03:24.927Z,30.33
2023-02-22T00:05:58.280Z,37.70
2023-02-22T00:08:30.367Z,37.03
2023-02-22T00:10:58.682Z,29.77
2023-02-22T00:13:29.727Z,32.67
2023-02-22T00:15:58.288Z,36.65
2023-02-22T00:18:27.846Z,54.42
2023-02-22T00:20:56.241Z,56.75
2023-02-22T00:23:25.345Z,38.67
2023-02-22T00:25:54.303Z,28.47
2023-02-22T00:28:24.192Z,25.17
2023-02-22T00:30:54.874Z,41.80
2023-02-22T00:33:23.516Z,48.80
2023-02-22T00:35:51.853Z,36.35
2023-02-22T00:38:20.474Z,22.13
2023-02-22T00:40:48.380Z,22.00
2023-02-22T00:43:16.947Z,28.30
2023-02-22T00:45:45.093Z,43.28
2023-02-22T00:48:14.332Z,33.58
2023-02-22T00:50:42.275Z,29.30
2023-02-22T00:53:10.390Z,30.08
2023-02-22T00:55:39.325Z,21.88
2023-02-22T00:58:08.005Z,23.70
2023-02-22T01:00:38.610Z,23.33
2023-02-22T01:03:07.524Z,22.75
2023-02-22T01:05:38.681Z,26.52
2023-02-22T01:08:09.662Z,31.33
2023-02-22T01:10:39.644Z,27.45
2023-02-22T01:13:11.972Z,70.57
2023-02-22T01:15:42.085Z,38.67
2023-02-22T01:18:12.567Z,38.25
2023-02-22T01:20:41.895Z,27.77
2023-02-22T01:23:10.588Z,29.77
2023-02-22T01:25:38.783Z,41.58
2023-02-22T01:28:08.905Z,51.03
2023-02-22T01:30:37.690Z,37.40
2023-02-22T01:33:08.352Z,38.17
2023-02-22T01:35:40.826Z,34.53
2023-02-22T01:38:10.882Z,71.00
2023-02-22T01:40:43.746Z,56.30
2023-02-22T01:43:20.374Z,24.60
2023-02-22T01:45:57.225Z,44.00
2023-02-22T01:48:30.789Z,28.92
2023-02-22T01:51:01.917Z,32.92
2023-02-22T01:53:39.593Z,24.90
2023-02-22T01:56:10.053Z,35.10
2023-02-22T01:58:41.041Z,46.42
2023-02-22T02:01:10.252Z,46.58
2023-02-22T02:03:40.852Z,39.78
2023-02-22T02:06:12.833Z,69.10
2023-02-22T02:08:49.863Z,87.35
2023-02-22T02:11:20.811Z,92.68
2023-02-22T02:13:51.088Z,79.43
2023-02-22T02:16:21.807Z,54.13
2023-02-22T02:18:50.149Z,81.57
2023-02-22T02:22:02.724Z,91.03
2023-02-22T02:25:20.594Z,69.95
2023-02-22T02:28:11.181Z,45.25
2023-02-22T02:30:56.597Z,41.42
2023-02-22T02:33:34.286Z,81.00
2023-02-22T02:36:06.699Z,52.10
2023-02-22T02:38:41.116Z,31.67
2023-02-22T02:41:13.885Z,43.55
2023-02-22T02:43:47.174Z,40.97
2023-02-22T02:46:21.029Z,45.78
2023-02-22T02:48:56.812Z,22.58
2023-02-22T02:51:30.357Z,19.88
2023-02-22T02:54:02.146Z,29.25
2023-02-22T02:56:30.928Z,27.25
2023-02-22T02:58:58.795Z,25.95
2023-02-22T03:01:46.348Z,23.17
2023-02-22T03:04:31.640Z,17.60
2023-02-22T03:07:39.880Z,23.55
2023-02-22T03:10:21.329Z,17.40
2023-02-22T03:12:59.491Z,18.02
2023-02-22T03:15:39.982Z,17.25
2023-02-22T03:18:17.857Z,28.02
2023-02-22T03:20:54.098Z,27.63
2023-02-22T03:23:29.187Z,34.45
2023-02-22T03:26:04.458Z,28.65
2023-02-22T03:28:35.709Z,22.65
2023-02-22T03:31:10.323Z,18.40
2023-02-22T03:33:42.392Z,18.30
2023-02-22T03:36:16.800Z,20.13
2023-02-22T03:38:46.952Z,18.40
2023-02-22T03:41:20.065Z,20.63
2023-02-22T03:43:51.745Z,16.55
2023-02-22T03:46:20.600Z,17.52
2023-02-22T03:48:55.120Z,21.90
2023-02-22T03:51:25.737Z,31.75
2023-02-22T03:53:59.114Z,18.65
2023-02-22T03:56:35.843Z,21.02
2023-02-22T03:59:05.736Z,27.80
2023-02-22T04:01:36.680Z,17.30
2023-02-22T04:04:05.667Z,27.83
2023-02-22T04:06:35.524Z,17.95
2023-02-22T04:09:05.314Z,23.33
2023-02-22T04:11:33.716Z,24.58
2023-02-22T04:14:01.676Z,49.63
2023-02-22T04:16:29.714Z,26.23
2023-02-22T04:18:57.663Z,36.22
2023-02-22T04:21:25.567Z,18.75
2023-02-22T04:23:54.899Z,16.77
2023-02-22T04:26:23.099Z,19.73
2023-02-22T04:28:55.637Z,17.27
2023-02-22T04:31:25.730Z,29.38
2023-02-22T04:33:55.769Z,19.70
2023-02-22T04:36:28.404Z,16.35
2023-02-22T04:38:57.585Z,16.88
2023-02-22T04:41:25.774Z,20.13
2023-02-22T04:43:54.102Z,19.63
2023-02-22T04:46:24.763Z,17.75
2023-02-22T04:48:55.231Z,18.00
2023-02-22T04:51:26.406Z,25.20
2023-02-22T04:54:08.135Z,15.52
2023-02-22T04:56:38.230Z,18.73
2023-02-22T04:59:07.269Z,15.38
2023-02-22T05:01:36.293Z,29.75
2023-02-22T05:04:05.491Z,25.50
2023-02-22T05:06:33.550Z,22.55
2023-02-22T05:09:01.447Z,17.90
2023-02-22T05:11:30.798Z,16.67
2023-02-22T05:13:58.676Z,23.23
2023-02-22T05:16:26.655Z,21.02
2023-02-22T05:18:54.554Z,14.20
2023-02-22T05:21:23.578Z,18.83
2023-02-22T05:23:51.658Z,16.80
2023-02-22T05:26:19.696Z,17.33
2023-02-22T05:28:48.911Z,17.85
2023-02-22T05:31:17.609Z,16.23
2023-02-22T05:33:45.579Z,19.23
2023-02-22T05:36:13.802Z,16.90
2023-02-22T05:38:43.481Z,26.08
2023-02-22T05:41:12.981Z,17.40
2023-02-22T05:43:41.287Z,18.85
2023-02-22T05:46:10.535Z,15.50
2023-02-22T05:48:38.489Z,21.58
2023-02-22T05:51:07.465Z,18.35
2023-02-22T05:53:35.395Z,25.70
2023-02-22T05:56:03.701Z,19.85
2023-02-22T05:58:31.619Z,16.98
2023-02-22T06:01:00.750Z,19.58
2023-02-22T06:03:31.632Z,45.08
2023-02-22T06:05:59.496Z,41.22
2023-02-22T06:08:27.461Z,35.97
2023-02-22T06:10:55.457Z,42.83
2023-02-22T06:13:23.319Z,84.22
2023-02-22T06:15:51.400Z,51.13
2023-02-22T06:18:19.376Z,24.25
2023-02-22T06:20:48.670Z,46.65
2023-02-22T06:23:17.633Z,41.30
2023-02-22T06:25:45.861Z,23.20
2023-02-22T06:28:14.296Z,59.17
2023-02-22T06:30:43.049Z,46.05
2023-02-22T06:33:11.052Z,29.33
2023-02-22T06:35:38.944Z,21.80
2023-02-22T06:38:08.265Z,31.63
2023-02-22T06:40:37.091Z,61.30
2023-02-22T06:43:04.984Z,99.82
2023-02-22T06:45:32.881Z,38.50
2023-02-22T06:48:00.906Z,39.50
2023-02-22T06:50:30.468Z,25.00
2023-02-22T06:52:59.492Z,32.80
2023-02-22T06:55:30.936Z,93.05
2023-02-22T06:57:59.177Z,102.70
2023-02-22T07:00:29.493Z,100.35
2023-02-22T07:02:58.274Z,282.25
2023-02-22T07:05:27.687Z,118.93
2023-02-22T07:08:04.121Z,141.27
2023-02-22T07:10:34.664Z,61.92
2023-02-22T07:13:03.413Z,70.32
2023-02-22T07:15:34.253Z,83.88
2023-02-22T07:18:02.740Z,36.28
2023-02-22T07:20:31.950Z,79.78
2023-02-22T07:22:59.939Z,132.00
2023-02-22T07:25:28.153Z,107.40
2023-02-22T07:27:57.454Z,73.45
2023-02-22T07:30:30.601Z,71.97
2023-02-22T07:33:09.464Z,74.10
2023-02-22T07:35:39.640Z,71.25
2023-02-22T07:38:08.973Z,75.35
2023-02-22T07:40:37.665Z,33.70
2023-02-22T07:43:14.888Z,62.47
2023-02-22T07:45:43.320Z,50.72
2023-02-22T07:48:12.498Z,36.80
2023-02-22T07:50:41.343Z,39.80
2023-02-22T07:53:13.328Z,35.70
2023-02-22T07:55:42.359Z,24.77
2023-02-22T07:58:16.025Z,36.78
2023-02-22T08:00:44.985Z,24.60
2023-02-22T08:03:14.435Z,31.17
2023-02-22T08:05:47.433Z,31.10
2023-02-22T08:08:18.176Z,42.80
2023-02-22T08:10:48.668Z,37.28
2023-02-22T08:13:18.997Z,54.03
2023-02-22T08:15:47.373Z,28.95
2023-02-22T08:18:17.270Z,27.52
2023-02-22T08:20:46.903Z,25.38
2023-02-22T08:23:16.787Z,25.40
2023-02-22T08:25:44.683Z,35.38
2023-02-22T08:28:15.149Z,30.17
2023-02-22T08:30:44.691Z,51.28
2023-02-22T08:33:15.935Z,45.97
2023-02-22T08:35:44.261Z,35.75
2023-02-22T08:38:18.229Z,35.38
2023-02-22T08:40:46.124Z,31.33
2023-02-22T08:43:14.513Z,25.13
2023-02-22T08:45:44.201Z,27.77
2023-02-22T08:48:12.324Z,47.05
2023-02-22T08:50:41.724Z,49.28
2023-02-22T08:53:11.464Z,81.95
2023-02-22T08:55:40.584Z,42.55
2023-02-22T08:58:10.215Z,32.33
2023-02-22T09:00:39.852Z,27.85
2023-02-22T09:03:13.037Z,31.70
2023-02-22T09:05:41.446Z,50.22
2023-02-22T09:08:10.800Z,23.95
2023-02-22T09:10:40.622Z,23.25
2023-02-22T09:13:08.683Z,29.48
2023-02-22T09:15:37.184Z,28.30
2023-02-22T09:18:06.270Z,34.63
2023-02-22T09:20:36.912Z,39.65
2023-02-22T09:23:07.218Z,30.60
2023-02-22T09:25:35.741Z,33.17
2023-02-22T09:28:04.174Z,30.10
2023-02-22T09:30:34.285Z,34.67
2023-02-22T09:33:04.072Z,37.58
2023-02-22T09:35:35.955Z,27.67
2023-02-22T09:38:07.593Z,32.72
2023-02-22T09:40:44.734Z,26.95
2023-02-22T09:43:35.657Z,35.10
2023-02-22T09:46:21.761Z,32.38
2023-02-22T09:49:01.400Z,32.67
2023-02-22T09:51:35.771Z,32.45
2023-02-22T09:54:07.739Z,34.22
2023-02-22T09:56:36.299Z,33.45
2023-02-22T09:59:08.500Z,27.88
2023-02-22T10:01:42.684Z,26.50
2023-02-22T10:04:18.681Z,30.58
2023-02-22T10:07:02.127Z,25.23
2023-02-22T10:09:32.576Z,28.53
2023-02-22T10:12:04.035Z,34.03
2023-02-22T10:15:06.203Z,30.30
2023-02-22T10:17:41.441Z,27.10
2023-02-22T10:20:22.961Z,24.57
2023-02-22T10:23:00.853Z,21.13
2023-02-22T10:25:35.709Z,24.70
2023-02-22T10:28:12.944Z,25.13
2023-02-22T10:30:44.192Z,26.30
2023-02-22T10:33:16.706Z,25.87
2023-02-22T10:35:47.201Z,26.87
2023-02-22T10:38:20.227Z,26.00
2023-02-22T10:40:54.742Z,23.60
2023-02-22T10:43:23.383Z,26.30
2023-02-22T10:45:55.885Z,27.77
2023-02-22T10:48:27.474Z,28.57
2023-02-22T10:50:59.865Z,29.17
2023-02-22T10:53:28.485Z,27.60
2023-02-22T10:56:15.109Z,26.40
2023-02-22T10:58:50.557Z,27.67
2023-02-22T11:01:27.854Z,29.53
2023-02-22T11:04:06.379Z,27.17
2023-02-22T11:06:35.106Z,27.83
2023-02-22T11:09:11.549Z,28.20
2023-02-22T11:11:42.713Z,27.27
2023-02-22T11:14:12.936Z,26.90
2023-02-22T11:16:44.724Z,26.47
2023-02-22T11:19:20.493Z,27.27
2023-02-22T11:21:51.417Z,30.23
2023-02-22T11:24:24.227Z,27.80
2023-02-22T11:26:57.306Z,28.37
2023-02-22T11:29:32.258Z,25.70
2023-02-22T11:32:03.741Z,28.87
2023-02-22T11:34:36.425Z,27.07
2023-02-22T11:37:19.640Z,26.03
2023-02-22T11:39:47.602Z,25.73
2023-02-22T11:42:23.958Z,25.50
2023-02-22T11:45:10.852Z,25.50
2023-02-22T11:47:53.874Z,23.60
2023-02-22T11:50:32.088Z,21.87
2023-02-22T11:53:21.970Z,27.23
2023-02-22T11:56:01.134Z,20.90
2023-02-22T11:58:42.418Z,20.77
2023-02-22T12:01:18.122Z,18.50
2023-02-22T12:04:25.017Z,21.03
2023-02-22T12:07:03.759Z,20.00
2023-02-22T12:09:40.737Z,20.47
2023-02-22T12:12:16.809Z,23.30
2023-02-22T12:14:56.149Z,20.57
2023-02-22T12:17:34.991Z,20.53
2023-02-22T12:20:10.305Z,20.63
2023-02-22T12:22:45.400Z,24.60
2023-02-22T12:25:20.741Z,17.77
2023-02-22T12:27:53.260Z,18.80
2023-02-22T12:30:25.303Z,19.30
2023-02-22T12:32:56.425Z,21.03
2023-02-22T12:35:26.860Z,21.10
2023-02-22T12:38:04.067Z,21.60
2023-02-22T12:40:36.561Z,20.80
2023-02-22T12:43:11.887Z,19.53
2023-02-22T12:45:48.315Z,21.20
2023-02-22T12:48:32.604Z,16.93
2023-02-22T12:51:08.262Z,18.30
2023-02-22T12:53:38.338Z,17.60
2023-02-22T12:56:20.527Z,19.43
2023-02-22T12:58:55.327Z,20.00
2023-02-22T13:01:30.033Z,18.17
2023-02-22T13:04:00.725Z,21.37
2023-02-22T13:06:42.655Z,16.23
2023-02-22T13:09:28.096Z,20.40
2023-02-22T13:12:03.149Z,19.27
2023-02-22T13:14:42.484Z,19.23
2023-02-22T13:17:21.316Z,18.73
2023-02-22T13:19:59.937Z,18.47
2023-02-22T13:22:35.707Z,17.37
2023-02-22T13:25:11.328Z,17.70
2023-02-22T13:27:44.494Z,18.13
2023-02-22T13:30:21.435Z,19.90
2023-02-22T13:33:03.073Z,19.03
2023-02-22T13:35:42.607Z,18.87
2023-02-22T13:38:38.262Z,17.67
2023-02-22T13:41:16.007Z,18.10
2023-02-22T13:44:17.388Z,19.90
2023-02-22T13:47:19.901Z,18.30
2023-02-22T13:50:18.657Z,19.10
2023-02-22T13:52:49.534Z,17.93
2023-02-22T13:55:23.446Z,17.60
2023-02-22T13:58:01.289Z,17.70
2023-02-22T14:00:44.454Z,16.33
2023-02-22T14:03:36.284Z,21.53
2023-02-22T14:06:08.015Z,16.33
2023-02-22T14:08:48.773Z,18.17
2023-02-22T14:11:54.109Z,22.37
2023-02-22T14:14:24.728Z,18.33
2023-02-22T14:17:25.106Z,19.93
2023-02-22T14:20:20.635Z,15.60
2023-02-22T14:22:52.850Z,18.60
2023-02-22T14:25:38.925Z,19.37
2023-02-22T14:28:36.528Z,16.20
2023-02-22T14:31:17.434Z,16.80
2023-02-22T14:34:00.348Z,17.60
2023-02-22T14:36:34.208Z,18.07
2023-02-22T14:39:23.223Z,14.93
2023-02-22T14:41:57.134Z,18.90
2023-02-22T14:44:28.861Z,18.10
2023-02-22T14:47:02.180Z,18.27
2023-02-22T14:49:37.642Z,18.30
2023-02-22T14:52:10.629Z,17.03
2023-02-22T14:54:51.808Z,17.53
2023-02-22T14:57:25.195Z,17.87
2023-02-22T15:00:09.326Z,17.87
2023-02-22T15:02:41.434Z,18.07
2023-02-22T15:05:14.217Z,18.17
2023-02-22T15:07:52.192Z,16.40
2023-02-22T15:10:25.965Z,18.60
2023-02-22T15:13:08.609Z,16.93
2023-02-22T15:15:39.286Z,16.73
2023-02-22T15:18:18.942Z,19.60
2023-02-22T15:20:48.421Z,16.97
2023-02-22T15:23:17.376Z,16.67
2023-02-22T15:25:51.231Z,15.40
2023-02-22T15:28:20.273Z,17.73
2023-02-22T15:30:48.268Z,17.77
2023-02-22T15:33:24.334Z,14.23
2023-02-22T15:35:57.441Z,17.43
2023-02-22T15:38:30.133Z,16.93
2023-02-22T15:41:08.372Z,18.00
2023-02-22T15:43:36.286Z,15.47
2023-02-22T15:46:14.196Z,17.50
2023-02-22T15:48:43.408Z,19.60
2023-02-22T15:51:14.517Z,15.50
2023-02-22T15:53:45.070Z,16.77
2023-02-22T15:56:19.644Z,16.90
2023-02-22T15:58:49.531Z,19.67
2023-02-22T16:01:20.022Z,18.60
2023-02-22T16:03:52.875Z,18.27
2023-02-22T16:06:29.699Z,16.67
2023-02-22T16:09:00.644Z,19.93
2023-02-22T16:11:38.492Z,14.97
2023-02-22T16:14:23.648Z,17.53
2023-02-22T16:16:51.732Z,16.17
2023-02-22T16:19:31.317Z,16.40
2023-02-22T16:22:03.019Z,16.67
2023-02-22T16:24:34.099Z,20.20
2023-02-22T16:27:21.704Z,16.23
2023-02-22T16:30:07.920Z,16.80
2023-02-22T16:32:40.945Z,18.40
2023-02-22T16:35:17.941Z,20.77
2023-02-22T16:37:46.927Z,19.27
2023-02-22T16:40:23.385Z,19.20
2023-02-22T16:43:04.425Z,19.90
2023-02-22T16:45:32.353Z,18.70
2023-02-22T16:48:04.951Z,18.30
2023-02-22T16:50:33.060Z,17.70
2023-02-22T16:53:01.939Z,19.07
2023-02-22T16:55:29.949Z,18.47
2023-02-22T16:58:01.051Z,19.10
2023-02-22T17:00:32.663Z,21.30
2023-02-22T17:03:04.350Z,17.87
2023-02-22T17:05:36.194Z,17.23
2023-02-22T17:08:04.260Z,15.83
2023-02-22T17:10:32.608Z,17.60
2023-02-22T17:13:16.160Z,17.13
2023-02-22T17:15:48.318Z,22.77
2023-02-22T17:18:22.610Z,19.90
2023-02-22T17:20:51.059Z,18.17
2023-02-22T17:23:19.794Z,19.30
2023-02-22T17:25:53.386Z,17.27
2023-02-22T17:28:23.610Z,15.77
2023-02-22T17:30:53.321Z,18.00
2023-02-22T17:33:26.557Z,21.47
2023-02-22T17:35:55.618Z,17.47
2023-02-22T17:38:23.509Z,20.80
2023-02-22T17:40:52.549Z,21.67
2023-02-22T17:43:22.160Z,24.63
2023-02-22T17:45:50.654Z,24.60
2023-02-22T17:48:19.612Z,24.30
2023-02-22T17:50:49.332Z,19.20
2023-02-22T17:53:21.657Z,25.40
2023-02-22T17:55:50.229Z,22.40
2023-02-22T17:58:19.548Z,26.90
2023-02-22T18:00:50.597Z,32.30
2023-02-22T18:03:21.812Z,47.07
2023-02-22T18:05:54.491Z,41.87
2023-02-22T18:08:25.929Z,39.70
2023-02-22T18:10:56.431Z,26.47
2023-02-22T18:13:26.250Z,31.20
2023-02-22T18:15:59.948Z,28.20
2023-02-22T18:18:28.138Z,35.67
2023-02-22T18:20:59.582Z,32.77
2023-02-22T18:23:29.355Z,41.57
2023-02-22T18:26:10.012Z,40.83
2023-02-22T18:28:39.846Z,36.33
2023-02-22T18:31:10.462Z,27.63
2023-02-22T18:33:38.636Z,28.40
2023-02-22T18:36:07.971Z,22.17
2023-02-22T18:38:35.940Z,28.40
2023-02-22T18:41:06.236Z,29.83
2023-02-22T18:43:35.560Z,28.40
2023-02-22T18:46:09.555Z,28.00
2023-02-22T18:48:38.576Z,25.80
2023-02-22T18:51:09.755Z,27.13
2023-02-22T18:53:38.611Z,26.70
2023-02-22T18:56:08.441Z,26.20
2023-02-22T18:58:38.938Z,29.80
2023-02-22T19:01:08.988Z,23.43
2023-02-22T19:03:38.341Z,24.37
2023-02-22T19:06:09.734Z,31.30
2023-02-22T19:08:42.162Z,33.77
2023-02-22T19:11:12.268Z,200.27
2023-02-22T19:13:40.276Z,49.07
2023-02-22T19:16:09.571Z,49.47
2023-02-22T19:18:38.505Z,33.43
2023-02-22T19:21:09.623Z,32.17
2023-02-22T19:23:39.500Z,31.80
2023-02-22T19:26:09.313Z,37.30
2023-02-22T19:28:37.213Z,36.10
2023-02-22T19:31:16.432Z,27.30
2023-02-22T19:33:44.691Z,28.37
2023-02-22T19:36:13.942Z,33.17
2023-02-22T19:38:44.194Z,35.47
2023-02-22T19:41:15.242Z,39.23
2023-02-22T19:43:43.584Z,56.50
2023-02-22T19:46:12.578Z,51.43
2023-02-22T19:48:42.177Z,53.03
2023-02-22T19:51:11.599Z,43.47
2023-02-22T19:53:43.132Z,37.50
2023-02-22T19:56:13.221Z,36.87
2023-02-22T19:58:42.230Z,35.83
2023-02-22T20:01:20.064Z,33.63
2023-02-22T20:03:54.124Z,39.13
2023-02-22T20:06:26.439Z,32.20
2023-02-22T20:08:55.108Z,38.90
2023-02-22T20:11:24.708Z,37.77
2023-02-22T20:13:53.083Z,35.37
2023-02-22T20:16:20.964Z,26.90
2023-02-22T20:18:51.121Z,32.80
2023-02-22T20:21:22.818Z,27.40
2023-02-22T20:23:51.102Z,30.73
2023-02-22T20:26:22.397Z,34.80
2023-02-22T20:28:50.716Z,36.13
2023-02-22T20:31:19.836Z,39.40
2023-02-22T20:33:53.575Z,36.20
2023-02-22T20:36:23.298Z,36.13
2023-02-22T20:38:54.798Z,33.80
2023-02-22T20:41:25.140Z,32.13
2023-02-22T20:43:54.065Z,32.17
2023-02-22T20:46:23.340Z,28.80
2023-02-22T20:48:55.162Z,29.17
2023-02-22T20:51:23.216Z,30.40
2023-02-22T20:53:51.089Z,29.00
2023-02-22T20:56:20.530Z,28.53
2023-02-22T20:58:48.539Z,29.77
2023-02-22T21:01:19.528Z,31.70
2023-02-22T21:03:49.664Z,39.17
2023-02-22T21:06:21.447Z,34.27
2023-02-22T21:08:53.555Z,32.07
2023-02-22T21:11:23.171Z,30.23
2023-02-22T21:13:51.146Z,29.73
2023-02-22T21:16:22.025Z,31.53
2023-02-22T21:18:51.336Z,31.77
2023-02-22T21:21:20.901Z,31.70
2023-02-22T21:23:51.851Z,31.20
2023-02-22T21:26:23.485Z,31.23
2023-02-22T21:28:51.987Z,30.60
2023-02-22T21:31:22.825Z,27.80
2023-02-22T21:33:52.032Z,31.17
2023-02-22T21:36:25.268Z,35.60
2023-02-22T21:38:55.819Z,25.60
2023-02-22T21:41:27.383Z,30.07
2023-02-22T21:43:56.756Z,35.13
2023-02-22T21:46:25.423Z,28.67
2023-02-22T21:48:53.604Z,26.33
2023-02-22T21:51:25.335Z,27.40
2023-02-22T21:53:55.381Z,27.27
2023-02-22T21:56:27.469Z,25.40
2023-02-22T21:58:59.916Z,24.10
2023-02-22T22:01:29.320Z,28.33
2023-02-22T22:04:00.050Z,28.23
2023-02-22T22:06:30.675Z,28.70
2023-02-22T22:08:59.812Z,40.57
2023-02-22T22:11:30.493Z,43.70
2023-02-22T22:14:00.464Z,52.47
2023-02-22T22:16:30.237Z,51.57
2023-02-22T22:18:58.611Z,33.67
2023-02-22T22:21:27.194Z,32.63
2023-02-22T22:23:57.326Z,28.37
2023-02-22T22:26:27.401Z,29.70
2023-02-22T22:28:59.150Z,31.87
2023-02-22T22:31:28.381Z,29.07
2023-02-22T22:33:57.557Z,29.03
2023-02-22T22:36:27.498Z,35.03
2023-02-22T22:38:58.299Z,28.43
2023-02-22T22:41:28.912Z,32.27
2023-02-22T22:43:56.997Z,28.40
2023-02-22T22:46:25.304Z,41.60
2023-02-22T22:48:53.322Z,80.10
2023-02-22T22:51:22.462Z,84.70
2023-02-22T22:53:51.492Z,63.37
2023-02-22T22:56:26.028Z,32.40
2023-02-22T22:58:55.568Z,31.70
2023-02-22T23:01:27.273Z,26.33
2023-02-22T23:03:57.802Z,23.23
2023-02-22T23:06:30.768Z,28.43
2023-02-22T23:09:00.263Z,28.97
2023-02-22T23:11:33.624Z,27.00
2023-02-22T23:14:04.503Z,25.63
2023-02-22T23:16:33.277Z,29.70
2023-02-22T23:19:01.252Z,29.20
2023-02-22T23:21:29.189Z,27.93
2023-02-22T23:23:58.460Z,31.60
2023-02-22T23:26:34.497Z,29.67
2023-02-22T23:29:03.330Z,26.83
2023-02-22T23:31:32.073Z,37.63
2023-02-22T23:34:06.654Z,32.80
2023-02-22T23:36:34.741Z,29.13
2023-02-22T23:39:02.703Z,30.50
2023-02-22T23:41:31.380Z,33.83
2023-02-22T23:44:00.897Z,35.40
2023-02-22T23:46:32.798Z,36.87
2023-02-22T23:49:02.778Z,35.03
2023-02-22T23:51:39.219Z,28.80
2023-02-22T23:54:09.157Z,27.83
2023-02-22T23:56:56.200Z,31.40
2023-02-22T23:59:27.053Z,34.70
